sensor_id;sensor_type;location;lat;lon;timestamp;pressure;altitude;pressure_sealevel;temperature;humidity
22755;BME280;11544;42.020;23.094;2022-11-11T00:02:02;98410.97;;;6.85;100.00
22755;BME280;11544;42.020;23.094;2022-11-11T00:04:47;98418.75;;;6.47;100.00
22755;BME280;11544;42.020;23.094;2022-11-11T00:07:31;98417.88;;;6.23;100.00
22755;BME280;11544;42.020;23.094;2022-11-11T00:10:15;98423.91;;;6.30;100.00
22755;BME280;11544;42.020;23.094;2022-11-11T00:13:01;98431.69;;;6.42;100.00
22755;BME280;11544;42.020;23.094;2022-11-11T00:15:45;98433.34;;;5.97;100.00
22755;BME280;11544;42.020;23.094;2022-11-11T00:18:30;98423.94;;;6.19;100.00
22755;BME280;11544;42.020;23.094;2022-11-11T00:21:33;98412.69;;;6.37;100.00
22755;BME280;11544;42.020;23.094;2022-11-11T00:24:36;98420.44;;;6.14;100.00
22755;BME280;11544;42.020;23.094;2022-11-11T00:27:39;98420.41;;;6.02;100.00
22755;BME280;11544;42.020;23.094;2022-11-11T00:30:23;98423.00;;;6.02;100.00
22755;BME280;11544;42.020;23.094;2022-11-11T00:33:07;98416.13;;;6.08;100.00
22755;BME280;11544;42.020;23.094;2022-11-11T00:35:55;98427.34;;;6.13;100.00
22755;BME280;11544;42.020;23.094;2022-11-11T00:38:40;98431.66;;;6.05;100.00
22755;BME280;11544;42.020;23.094;2022-11-11T00:41:32;98421.31;;;6.21;100.00
22755;BME280;11544;42.020;23.094;2022-11-11T00:44:16;98419.59;;;6.23;100.00
22755;BME280;11544;42.020;23.094;2022-11-11T00:47:01;98413.53;;;5.96;100.00
22755;BME280;11544;42.020;23.094;2022-11-11T00:50:06;98414.44;;;6.17;100.00
22755;BME280;11544;42.020;23.094;2022-11-11T00:53:20;98418.72;;;6.13;100.00
22755;BME280;11544;42.020;23.094;2022-11-11T00:56:05;98424.63;;;5.73;100.00
22755;BME280;11544;42.020;23.094;2022-11-11T00:58:49;98410.00;;;5.83;100.00
22755;BME280;11544;42.020;23.094;2022-11-11T01:01:35;98410.81;;;5.71;100.00
22755;BME280;11544;42.020;23.094;2022-11-11T01:04:21;98415.19;;;5.85;100.00
22755;BME280;11544;42.020;23.094;2022-11-11T01:07:05;98418.63;;;5.87;100.00
22755;BME280;11544;42.020;23.094;2022-11-11T01:09:50;98419.47;;;5.72;100.00
22755;BME280;11544;42.020;23.094;2022-11-11T01:12:34;98416.13;;;6.04;100.00
22755;BME280;11544;42.020;23.094;2022-11-11T01:15:19;98417.75;;;5.76;100.00
22755;BME280;11544;42.020;23.094;2022-11-11T01:18:04;98423.75;;;5.67;100.00
22755;BME280;11544;42.020;23.094;2022-11-11T01:21:00;98412.56;;;5.76;100.00
22755;BME280;11544;42.020;23.094;2022-11-11T01:23:45;98424.66;;;5.72;100.00
22755;BME280;11544;42.020;23.094;2022-11-11T01:26:30;98423.91;;;6.14;100.00
22755;BME280;11544;42.020;23.094;2022-11-11T01:29:15;98423.88;;;6.11;100.00
22755;BME280;11544;42.020;23.094;2022-11-11T01:31:59;98416.97;;;6.04;100.00
22755;BME280;11544;42.020;23.094;2022-11-11T01:34:43;98414.41;;;6.13;100.00
22755;BME280;11544;42.020;23.094;2022-11-11T01:37:28;98410.88;;;5.84;100.00
22755;BME280;11544;42.020;23.094;2022-11-11T01:40:12;98404.06;;;6.07;100.00
22755;BME280;11544;42.020;23.094;2022-11-11T01:45:54;98398.03;;;6.19;100.00
22755;BME280;11544;42.020;23.094;2022-11-11T01:48:47;98399.72;;;5.96;100.00
22755;BME280;11544;42.020;23.094;2022-11-11T01:52:00;98402.28;;;5.91;100.00
22755;BME280;11544;42.020;23.094;2022-11-11T01:54:48;98398.88;;;6.32;100.00
22755;BME280;11544;42.020;23.094;2022-11-11T01:57:39;98406.66;;;6.55;100.00
22755;BME280;11544;42.020;23.094;2022-11-11T02:00:24;98409.25;;;6.44;100.00
22755;BME280;11544;42.020;23.094;2022-11-11T02:03:09;98411.00;;;6.41;100.00
22755;BME280;11544;42.020;23.094;2022-11-11T02:05:53;98410.09;;;6.25;100.00
22755;BME280;11544;42.020;23.094;2022-11-11T02:08:41;98417.88;;;6.63;100.00
22755;BME280;11544;42.020;23.094;2022-11-11T02:11:27;98410.13;;;6.57;100.00
22755;BME280;11544;42.020;23.094;2022-11-11T02:14:31;98413.56;;;6.42;100.00
22755;BME280;11544;42.020;23.094;2022-11-11T02:17:19;98413.59;;;6.45;100.00
22755;BME280;11544;42.020;23.094;2022-11-11T02:20:06;98413.53;;;6.93;100.00
22755;BME280;11544;42.020;23.094;2022-11-11T02:22:57;98404.94;;;6.65;100.00
22755;BME280;11544;42.020;23.094;2022-11-11T02:25:47;98415.28;;;6.58;100.00
22755;BME280;11544;42.020;23.094;2022-11-11T02:28:32;98411.84;;;6.56;100.00
22755;BME280;11544;42.020;23.094;2022-11-11T02:31:17;98414.44;;;6.67;100.00
22755;BME280;11544;42.020;23.094;2022-11-11T02:34:01;98412.69;;;6.88;100.00
22755;BME280;11544;42.020;23.094;2022-11-11T02:36:45;98413.53;;;6.97;100.00
22755;BME280;11544;42.020;23.094;2022-11-11T02:39:30;98418.72;;;6.94;100.00
22755;BME280;11544;42.020;23.094;2022-11-11T02:42:17;98420.47;;;6.58;100.00
22755;BME280;11544;42.020;23.094;2022-11-11T02:45:03;98418.75;;;6.68;100.00
22755;BME280;11544;42.020;23.094;2022-11-11T02:47:47;98419.63;;;6.33;100.00
22755;BME280;11544;42.020;23.094;2022-11-11T02:50:32;98417.03;;;6.50;100.00
22755;BME280;11544;42.020;23.094;2022-11-11T02:53:16;98417.00;;;6.52;100.00
22755;BME280;11544;42.020;23.094;2022-11-11T02:56:00;98416.19;;;6.54;100.00
22755;BME280;11544;42.020;23.094;2022-11-11T02:58:44;98418.75;;;6.51;100.00
22755;BME280;11544;42.020;23.094;2022-11-11T03:01:28;98426.53;;;6.65;100.00
22755;BME280;11544;42.020;23.094;2022-11-11T03:04:13;98417.88;;;6.78;100.00
22755;BME280;11544;42.020;23.094;2022-11-11T03:06:57;98421.34;;;6.45;100.00
22755;BME280;11544;42.020;23.094;2022-11-11T03:09:42;98424.78;;;6.24;100.00
22755;BME280;11544;42.020;23.094;2022-11-11T03:12:26;98435.16;;;6.32;100.00
22755;BME280;11544;42.020;23.094;2022-11-11T03:15:10;98436.00;;;6.25;100.00
22755;BME280;11544;42.020;23.094;2022-11-11T03:17:54;98432.53;;;6.23;100.00
22755;BME280;11544;42.020;23.094;2022-11-11T03:20:38;98432.56;;;6.38;100.00
22755;BME280;11544;42.020;23.094;2022-11-11T03:23:41;98439.41;;;6.11;100.00
22755;BME280;11544;42.020;23.094;2022-11-11T03:26:25;98445.50;;;6.29;100.00
22755;BME280;11544;42.020;23.094;2022-11-11T03:29:09;98437.75;;;6.63;100.00
22755;BME280;11544;42.020;23.094;2022-11-11T03:31:53;98438.59;;;6.54;100.00
22755;BME280;11544;42.020;23.094;2022-11-11T03:34:37;98438.59;;;6.42;100.00
22755;BME280;11544;42.020;23.094;2022-11-11T03:37:22;98445.47;;;6.13;100.00
22755;BME280;11544;42.020;23.094;2022-11-11T03:40:25;98446.34;;;6.28;100.00
22755;BME280;11544;42.020;23.094;2022-11-11T03:43:10;98445.47;;;6.21;100.00
22755;BME280;11544;42.020;23.094;2022-11-11T03:45:57;98440.34;;;6.58;100.00
22755;BME280;11544;42.020;23.094;2022-11-11T03:48:42;98447.25;;;6.36;100.00
22755;BME280;11544;42.020;23.094;2022-11-11T03:51:27;98449.78;;;6.16;100.00
22755;BME280;11544;42.020;23.094;2022-11-11T03:54:11;98446.38;;;6.32;100.00
22755;BME280;11544;42.020;23.094;2022-11-11T03:56:56;98446.41;;;6.35;100.00
22755;BME280;11544;42.020;23.094;2022-11-11T03:59:59;98453.28;;;6.41;100.00
22755;BME280;11544;42.020;23.094;2022-11-11T04:02:43;98452.44;;;6.51;100.00
22755;BME280;11544;42.020;23.094;2022-11-11T04:05:46;98451.56;;;6.83;100.00
22755;BME280;11544;42.020;23.094;2022-11-11T04:08:49;98452.44;;;6.85;100.00
22755;BME280;11544;42.020;23.094;2022-11-11T04:11:52;98455.00;;;7.00;100.00
22755;BME280;11544;42.020;23.094;2022-11-11T04:14:37;98446.38;;;6.68;100.00
22755;BME280;11544;42.020;23.094;2022-11-11T04:17:40;98453.31;;;6.67;100.00
22755;BME280;11544;42.020;23.094;2022-11-11T04:20:24;98452.44;;;6.73;100.00
22755;BME280;11544;42.020;23.094;2022-11-11T04:23:27;98460.16;;;6.33;100.00
22755;BME280;11544;42.020;23.094;2022-11-11T04:26:11;98458.47;;;6.24;100.00
22755;BME280;11544;42.020;23.094;2022-11-11T04:28:55;98457.63;;;6.71;100.00
22755;BME280;11544;42.020;23.094;2022-11-11T04:32:12;98454.16;;;6.78;100.00
22755;BME280;11544;42.020;23.094;2022-11-11T04:35:15;98460.22;;;6.79;100.00
22755;BME280;11544;42.020;23.094;2022-11-11T04:38:00;98461.91;;;6.49;100.00
22755;BME280;11544;42.020;23.094;2022-11-11T04:41:03;98457.59;;;6.64;100.00
22755;BME280;11544;42.020;23.094;2022-11-11T04:43:47;98449.84;;;6.70;100.00
22755;BME280;11544;42.020;23.094;2022-11-11T04:46:50;98454.16;;;6.65;100.00
22755;BME280;11544;42.020;23.094;2022-11-11T04:49:34;98454.16;;;6.63;100.00
22755;BME280;11544;42.020;23.094;2022-11-11T04:52:18;98455.03;;;6.81;100.00
22755;BME280;11544;42.020;23.094;2022-11-11T04:55:09;98463.66;;;6.86;100.00
22755;BME280;11544;42.020;23.094;2022-11-11T04:58:12;98469.69;;;6.94;100.00
22755;BME280;11544;42.020;23.094;2022-11-11T05:00:57;98469.72;;;6.69;100.00
22755;BME280;11544;42.020;23.094;2022-11-11T05:03:41;98469.69;;;6.94;100.00
22755;BME280;11544;42.020;23.094;2022-11-11T05:06:25;98467.09;;;6.80;100.00
22755;BME280;11544;42.020;23.094;2022-11-11T05:09:45;98483.44;;;6.05;100.00
22755;BME280;11544;42.020;23.094;2022-11-11T05:12:29;98478.22;;;5.94;100.00
22755;BME280;11544;42.020;23.094;2022-11-11T05:15:14;98475.72;;;6.33;100.00
22755;BME280;11544;42.020;23.094;2022-11-11T05:18:18;98473.16;;;6.48;100.00
22755;BME280;11544;42.020;23.094;2022-11-11T05:21:24;98474.91;;;6.60;100.00
22755;BME280;11544;42.020;23.094;2022-11-11T05:24:10;98473.94;;;6.13;100.00
22755;BME280;11544;42.020;23.094;2022-11-11T05:27:13;98476.53;;;6.09;100.00
22755;BME280;11544;42.020;23.094;2022-11-11T05:29:57;98476.56;;;6.21;100.00
22755;BME280;11544;42.020;23.094;2022-11-11T05:32:42;98489.53;;;6.30;100.00
22755;BME280;11544;42.020;23.094;2022-11-11T05:35:28;98492.16;;;6.33;100.00
22755;BME280;11544;42.020;23.094;2022-11-11T05:38:12;98493.03;;;6.55;100.00
22755;BME280;11544;42.020;23.094;2022-11-11T05:41:06;98489.56;;;6.50;100.00
22755;BME280;11544;42.020;23.094;2022-11-11T05:43:50;98499.94;;;6.75;100.00
22755;BME280;11544;42.020;23.094;2022-11-11T05:46:35;98503.34;;;6.40;100.00
22755;BME280;11544;42.020;23.094;2022-11-11T05:49:19;98495.59;;;6.54;100.00
22755;BME280;11544;42.020;23.094;2022-11-11T05:52:05;98485.28;;;6.71;100.00
22755;BME280;11544;42.020;23.094;2022-11-11T05:54:49;98486.13;;;7.11;100.00
22755;BME280;11544;42.020;23.094;2022-11-11T05:57:33;98493.03;;;6.63;100.00
22755;BME280;11544;42.020;23.094;2022-11-11T06:00:18;98507.72;;;6.63;100.00
22755;BME280;11544;42.020;23.094;2022-11-11T06:03:03;98498.22;;;7.02;100.00
22755;BME280;11544;42.020;23.094;2022-11-11T06:05:49;98492.19;;;6.90;100.00
22755;BME280;11544;42.020;23.094;2022-11-11T06:08:33;98499.06;;;7.08;100.00
22755;BME280;11544;42.020;23.094;2022-11-11T06:11:18;98499.91;;;7.35;100.00
22755;BME280;11544;42.020;23.094;2022-11-11T06:14:02;98489.50;;;7.42;100.00
22755;BME280;11544;42.020;23.094;2022-11-11T06:16:47;98492.94;;;7.63;100.00
22755;BME280;11544;42.020;23.094;2022-11-11T06:19:31;98485.84;;;7.96;100.00
22755;BME280;11544;42.020;23.094;2022-11-11T06:22:16;98486.53;;;8.36;100.00
22755;BME280;11544;42.020;23.094;2022-11-11T06:25:21;98478.63;;;8.50;100.00
22755;BME280;11544;42.020;23.094;2022-11-11T06:28:24;98472.38;;;8.76;100.00
22755;BME280;11544;42.020;23.094;2022-11-11T06:31:10;98474.75;;;9.05;100.00
22755;BME280;11544;42.020;23.094;2022-11-11T06:33:55;98492.00;;;9.14;100.00
22755;BME280;11544;42.020;23.094;2022-11-11T06:36:39;98490.47;;;8.88;100.00
22755;BME280;11544;42.020;23.094;2022-11-11T06:39:23;98502.03;;;8.50;100.00
22755;BME280;11544;42.020;23.094;2022-11-11T06:42:08;98501.84;;;8.78;100.00
22755;BME280;11544;42.020;23.094;2022-11-11T06:44:52;98501.97;;;8.59;100.00
22755;BME280;11544;42.020;23.094;2022-11-11T06:47:36;98499.09;;;8.96;100.00
22755;BME280;11544;42.020;23.094;2022-11-11T06:50:20;98506.25;;;8.68;100.00
22755;BME280;11544;42.020;23.094;2022-11-11T06:53:06;98491.25;;;9.01;100.00
22755;BME280;11544;42.020;23.094;2022-11-11T06:55:51;98485.25;;;8.96;100.00
22755;BME280;11544;42.020;23.094;2022-11-11T06:58:36;98496.44;;;9.05;100.00
22755;BME280;11544;42.020;23.094;2022-11-11T07:01:20;98489.34;;;9.20;100.00
22755;BME280;11544;42.020;23.094;2022-11-11T07:04:04;98495.09;;;8.54;100.00
22755;BME280;11544;42.020;23.094;2022-11-11T07:06:48;98494.03;;;8.78;100.00
22755;BME280;11544;42.020;23.094;2022-11-11T07:09:32;98494.03;;;8.78;100.00
22755;BME280;11544;42.020;23.094;2022-11-11T07:12:17;98501.78;;;8.87;100.00
22755;BME280;11544;42.020;23.094;2022-11-11T07:15:01;98507.94;;;8.75;100.00
22755;BME280;11544;42.020;23.094;2022-11-11T07:17:45;98506.66;;;9.22;100.00
22755;BME280;11544;42.020;23.094;2022-11-11T07:20:29;98504.34;;;8.92;100.00
22755;BME280;11544;42.020;23.094;2022-11-11T07:23:14;98510.53;;;8.77;100.00
22755;BME280;11544;42.020;23.094;2022-11-11T07:26:00;98510.16;;;9.18;100.00
22755;BME280;11544;42.020;23.094;2022-11-11T07:28:44;98510.91;;;9.34;100.00
22755;BME280;11544;42.020;23.094;2022-11-11T07:31:28;98512.00;;;9.07;100.00
22755;BME280;11544;42.020;23.094;2022-11-11T07:34:13;98516.56;;;8.82;100.00
22755;BME280;11544;42.020;23.094;2022-11-11T07:36:57;98526.13;;;8.74;100.00
22755;BME280;11544;42.020;23.094;2022-11-11T07:39:41;98524.22;;;8.99;100.00
22755;BME280;11544;42.020;23.094;2022-11-11T07:42:25;98510.25;;;9.09;100.00
22755;BME280;11544;42.020;23.094;2022-11-11T07:45:11;98510.41;;;8.92;100.00
22755;BME280;11544;42.020;23.094;2022-11-11T07:47:56;98518.06;;;9.09;100.00
22755;BME280;11544;42.020;23.094;2022-11-11T07:50:40;98508.75;;;8.82;100.00
22755;BME280;11544;42.020;23.094;2022-11-11T07:53:24;98501.50;;;9.18;100.00
22755;BME280;11544;42.020;23.094;2022-11-11T07:56:10;98509.28;;;9.21;100.00
22755;BME280;11544;42.020;23.094;2022-11-11T07:58:54;98504.97;;;9.18;100.00
22755;BME280;11544;42.020;23.094;2022-11-11T08:01:39;98499.63;;;9.30;100.00
22755;BME280;11544;42.020;23.094;2022-11-11T08:04:23;98504.91;;;9.24;100.00
22755;BME280;11544;42.020;23.094;2022-11-11T08:07:08;98503.91;;;9.41;100.00
22755;BME280;11544;42.020;23.094;2022-11-11T08:09:52;98503.47;;;9.78;100.00
22755;BME280;11544;42.020;23.094;2022-11-11T08:12:37;98506.50;;;9.38;100.00
22755;BME280;11544;42.020;23.094;2022-11-11T08:15:40;98512.50;;;9.47;100.00
22755;BME280;11544;42.020;23.094;2022-11-11T08:18:24;98510.91;;;9.34;100.00
22755;BME280;11544;42.020;23.094;2022-11-11T08:21:09;98515.84;;;9.59;100.00
22755;BME280;11544;42.020;23.094;2022-11-11T08:23:54;98511.66;;;9.45;100.00
22755;BME280;11544;42.020;23.094;2022-11-11T08:26:38;98505.53;;;9.49;100.00
22755;BME280;11544;42.020;23.094;2022-11-11T08:29:22;98512.38;;;9.60;100.00
22755;BME280;11544;42.020;23.094;2022-11-11T08:32:07;98516.34;;;9.08;100.00
22755;BME280;11544;42.020;23.094;2022-11-11T08:34:51;98520.44;;;9.33;100.00
22755;BME280;11544;42.020;23.094;2022-11-11T08:37:35;98519.84;;;9.02;100.00
22755;BME280;11544;42.020;23.094;2022-11-11T08:40:21;98525.06;;;8.99;100.00
22755;BME280;11544;42.020;23.094;2022-11-11T08:43:05;98526.56;;;9.29;100.00
22755;BME280;11544;42.020;23.094;2022-11-11T08:45:53;98518.06;;;9.10;100.00
22755;BME280;11544;42.020;23.094;2022-11-11T08:48:37;98523.72;;;9.51;100.00
22755;BME280;11544;42.020;23.094;2022-11-11T08:51:21;98537.81;;;9.33;100.00
22755;BME280;11544;42.020;23.094;2022-11-11T08:54:06;98531.63;;;9.42;100.00
22755;BME280;11544;42.020;23.094;2022-11-11T08:56:50;98523.94;;;9.29;100.00
22755;BME280;11544;42.020;23.094;2022-11-11T08:59:35;98520.41;;;9.38;100.00
22755;BME280;11544;42.020;23.094;2022-11-11T09:02:19;98529.69;;;9.62;100.00
22755;BME280;11544;42.020;23.094;2022-11-11T09:05:04;98513.91;;;9.78;100.00
22755;BME280;11544;42.020;23.094;2022-11-11T09:07:49;98512.22;;;9.73;100.00
22755;BME280;11544;42.020;23.094;2022-11-11T09:10:34;98513.84;;;9.82;100.00
22755;BME280;11544;42.020;23.094;2022-11-11T09:13:18;98508.97;;;9.53;100.00
22755;BME280;11544;42.020;23.094;2022-11-11T09:16:03;98508.56;;;9.87;100.00
22755;BME280;11544;42.020;23.094;2022-11-11T09:18:47;98502.34;;;10.02;100.00
22755;BME280;11544;42.020;23.094;2022-11-11T09:21:31;98513.03;;;9.79;100.00
22755;BME280;11544;42.020;23.094;2022-11-11T09:24:16;98505.16;;;9.82;100.00
22755;BME280;11544;42.020;23.094;2022-11-11T09:27:00;98497.06;;;10.06;100.00
22755;BME280;11544;42.020;23.094;2022-11-11T09:29:44;98492.22;;;10.45;100.00
22755;BME280;11544;42.020;23.094;2022-11-11T09:32:29;98481.59;;;10.59;100.00
22755;BME280;11544;42.020;23.094;2022-11-11T09:35:13;98476.94;;;10.79;100.00
22755;BME280;11544;42.020;23.094;2022-11-11T09:37:59;98468.34;;;10.71;100.00
22755;BME280;11544;42.020;23.094;2022-11-11T09:43:55;98459.78;;;10.63;100.00
22755;BME280;11544;42.020;23.094;2022-11-11T09:46:59;98464.38;;;11.01;100.00
22755;BME280;11544;42.020;23.094;2022-11-11T09:52:45;98440.06;;;11.46;100.00
22755;BME280;11544;42.020;23.094;2022-11-11T09:55:41;98436.69;;;12.25;100.00
22755;BME280;11544;42.020;23.094;2022-11-11T09:58:40;98430.66;;;12.59;94.52
22755;BME280;11544;42.020;23.094;2022-11-11T10:01:33;98424.03;;;12.45;94.81
22755;BME280;11544;42.020;23.094;2022-11-11T10:04:42;98415.66;;;12.31;94.58
22755;BME280;11544;42.020;23.094;2022-11-11T10:10:49;98403.47;;;12.66;94.37
22755;BME280;11544;42.020;23.094;2022-11-11T10:13:36;98410.28;;;13.06;92.17
22755;BME280;11544;42.020;23.094;2022-11-11T10:22:41;98380.13;;;14.43;85.19
22755;BME280;11544;42.020;23.094;2022-11-11T10:25:26;98377.81;;;14.87;82.20
22755;BME280;11544;42.020;23.094;2022-11-11T10:28:19;98374.56;;;13.67;83.77
22755;BME280;11544;42.020;23.094;2022-11-11T10:31:12;98379.63;;;13.44;87.24
22755;BME280;11544;42.020;23.094;2022-11-11T10:34:02;98368.00;;;13.54;88.26
22755;BME280;11544;42.020;23.094;2022-11-11T10:36:52;98374.31;;;13.14;89.01
22755;BME280;11544;42.020;23.094;2022-11-11T10:42:22;98376.28;;;13.39;89.76
22755;BME280;11544;42.020;23.094;2022-11-11T10:45:28;98366.97;;;13.58;89.00
22755;BME280;11544;42.020;23.094;2022-11-11T10:48:19;98356.59;;;13.85;86.73
22755;BME280;11544;42.020;23.094;2022-11-11T10:51:06;98359.41;;;14.07;85.27
22755;BME280;11544;42.020;23.094;2022-11-11T10:54:09;98358.28;;;14.15;84.53
22755;BME280;11544;42.020;23.094;2022-11-11T10:57:02;98350.25;;;14.20;82.99
22755;BME280;11544;42.020;23.094;2022-11-11T11:00:01;98355.25;;;14.28;82.00
22755;BME280;11544;42.020;23.094;2022-11-11T11:05:56;98341.31;;;14.54;79.22
22755;BME280;11544;42.020;23.094;2022-11-11T11:08:46;98331.59;;;14.57;79.01
22755;BME280;11544;42.020;23.094;2022-11-11T11:11:41;98325.41;;;14.58;78.77
22755;BME280;11544;42.020;23.094;2022-11-11T11:14:31;98325.53;;;14.55;78.44
22755;BME280;11544;42.020;23.094;2022-11-11T11:17:26;98314.97;;;14.57;78.26
22755;BME280;11544;42.020;23.094;2022-11-11T11:20:18;98318.59;;;14.53;78.12
22755;BME280;11544;42.020;23.094;2022-11-11T11:23:03;98311.38;;;14.59;77.82
22755;BME280;11544;42.020;23.094;2022-11-11T11:25:52;98316.41;;;14.39;78.44
22755;BME280;11544;42.020;23.094;2022-11-11T11:28:57;98306.94;;;14.35;77.90
22755;BME280;11544;42.020;23.094;2022-11-11T11:31:42;98301.50;;;14.41;77.82
22755;BME280;11544;42.020;23.094;2022-11-11T11:37:49;98304.84;;;14.71;75.34
22755;BME280;11544;42.020;23.094;2022-11-11T11:40:51;98293.66;;;14.66;74.63
22755;BME280;11544;42.020;23.094;2022-11-11T11:43:39;98302.75;;;14.81;73.97
22755;BME280;11544;42.020;23.094;2022-11-11T11:52:36;98279.84;;;14.86;72.88
22755;BME280;11544;42.020;23.094;2022-11-11T11:55:36;98294.34;;;14.71;71.92
22755;BME280;11544;42.020;23.094;2022-11-11T11:58:52;98286.06;;;14.58;71.80
22755;BME280;11544;42.020;23.094;2022-11-11T12:01:58;98284.56;;;15.00;70.73
22755;BME280;11544;42.020;23.094;2022-11-11T12:08:05;98285.41;;;14.77;70.65
22755;BME280;11544;42.020;23.094;2022-11-11T12:11:07;98277.22;;;14.86;70.02
22755;BME280;11544;42.020;23.094;2022-11-11T12:20:24;98274.59;;;15.57;66.20
22755;BME280;11544;42.020;23.094;2022-11-11T12:32:31;98268.78;;;15.25;64.33
22755;BME280;11544;42.020;23.094;2022-11-11T12:41:51;98255.50;;;15.52;62.91
22755;BME280;11544;42.020;23.094;2022-11-11T13:00:21;98252.22;;;15.23;61.17
22755;BME280;11544;42.020;23.094;2022-11-11T13:09:47;98244.50;;;15.18;60.70
22755;BME280;11544;42.020;23.094;2022-11-11T13:12:42;98247.97;;;15.42;60.38
22755;BME280;11544;42.020;23.094;2022-11-11T13:15:29;98242.34;;;15.06;60.76
22755;BME280;11544;42.020;23.094;2022-11-11T13:18:19;98245.94;;;15.03;60.83
22755;BME280;11544;42.020;23.094;2022-11-11T13:21:10;98242.03;;;15.37;59.78
22755;BME280;11544;42.020;23.094;2022-11-11T13:23:57;98230.34;;;15.22;59.84
22755;BME280;11544;42.020;23.094;2022-11-11T13:26:57;98240.00;;;15.22;59.27
22755;BME280;11544;42.020;23.094;2022-11-11T13:32:58;98230.88;;;15.09;59.80
22755;BME280;11544;42.020;23.094;2022-11-11T13:35:51;98227.19;;;14.91;60.25
22755;BME280;11544;42.020;23.094;2022-11-11T13:41:35;98232.97;;;14.75;60.57
22755;BME280;11544;42.020;23.094;2022-11-11T13:44:31;98238.06;;;14.80;60.05
22755;BME280;11544;42.020;23.094;2022-11-11T13:47:24;98228.25;;;14.85;59.95
22755;BME280;11544;42.020;23.094;2022-11-11T13:50:13;98215.72;;;14.68;59.70
22755;BME280;11544;42.020;23.094;2022-11-11T13:53:11;98233.19;;;14.69;59.79
22755;BME280;11544;42.020;23.094;2022-11-11T13:56:01;98228.25;;;14.85;59.32
22755;BME280;11544;42.020;23.094;2022-11-11T13:58:47;98226.72;;;15.03;59.01
22755;BME280;11544;42.020;23.094;2022-11-11T14:01:34;98223.63;;;15.15;58.29
22755;BME280;11544;42.020;23.094;2022-11-11T14:04:19;98229.19;;;15.08;58.38
22755;BME280;11544;42.020;23.094;2022-11-11T14:07:06;98229.56;;;15.20;58.26
22755;BME280;11544;42.020;23.094;2022-11-11T14:09:52;98230.88;;;15.09;58.10
22755;BME280;11544;42.020;23.094;2022-11-11T14:12:40;98226.25;;;14.92;58.43
22755;BME280;11544;42.020;23.094;2022-11-11T14:15:44;98230.06;;;14.83;58.70
22755;BME280;11544;42.020;23.094;2022-11-11T14:18:36;98233.41;;;14.88;58.51
22755;BME280;11544;42.020;23.094;2022-11-11T14:21:48;98226.22;;;14.93;58.21
22755;BME280;11544;42.020;23.094;2022-11-11T14:24:46;98230.31;;;14.77;58.29
22755;BME280;11544;42.020;23.094;2022-11-11T14:27:31;98233.47;;;14.61;58.41
22755;BME280;11544;42.020;23.094;2022-11-11T14:30:38;98228.63;;;14.49;58.56
22755;BME280;11544;42.020;23.094;2022-11-11T14:39:53;98239.66;;;14.34;58.93
22755;BME280;11544;42.020;23.094;2022-11-11T14:51:42;98237.13;;;14.04;60.20
22755;BME280;11544;42.020;23.094;2022-11-11T14:54:35;98237.09;;;14.06;60.41
22755;BME280;11544;42.020;23.094;2022-11-11T15:00:27;98245.56;;;13.87;61.24
22755;BME280;11544;42.020;23.094;2022-11-11T15:06:38;98250.00;;;13.85;61.00
22755;BME280;11544;42.020;23.094;2022-11-11T15:09:44;98253.97;;;13.97;61.00
22755;BME280;11544;42.020;23.094;2022-11-11T15:25:36;98273.75;;;13.51;61.75
22755;BME280;11544;42.020;23.094;2022-11-11T15:32:00;98277.03;;;13.59;61.67
22755;BME280;11544;42.020;23.094;2022-11-11T15:37:37;98272.22;;;13.44;62.08
22755;BME280;11544;42.020;23.094;2022-11-11T15:40:24;98275.78;;;13.41;61.81
22755;BME280;11544;42.020;23.094;2022-11-11T15:43:14;98273.59;;;13.27;62.17
22755;BME280;11544;42.020;23.094;2022-11-11T15:46:01;98274.00;;;13.12;62.49
22755;BME280;11544;42.020;23.094;2022-11-11T15:48:46;98274.09;;;13.09;62.33
22755;BME280;11544;42.020;23.094;2022-11-11T15:51:32;98268.34;;;13.27;61.87
22755;BME280;11544;42.020;23.094;2022-11-11T15:54:20;98270.91;;;13.30;61.30
22755;BME280;11544;42.020;23.094;2022-11-11T15:57:22;98272.72;;;12.96;62.10
22755;BME280;11544;42.020;23.094;2022-11-11T16:03:20;98272.75;;;12.94;62.60
22755;BME280;11544;42.020;23.094;2022-11-11T16:06:11;98280.13;;;12.80;63.08
22755;BME280;11544;42.020;23.094;2022-11-11T16:08:55;98284.41;;;12.84;63.32
22755;BME280;11544;42.020;23.094;2022-11-11T16:11:41;98281.00;;;12.80;63.12
22755;BME280;11544;42.020;23.094;2022-11-11T16:14:32;98287.13;;;12.79;63.82
22755;BME280;11544;42.020;23.094;2022-11-11T16:17:20;98280.47;;;12.67;63.57
22755;BME280;11544;42.020;23.094;2022-11-11T16:20:13;98284.53;;;12.78;63.29
22755;BME280;11544;42.020;23.094;2022-11-11T16:23:01;98287.47;;;12.67;64.01
22755;BME280;11544;42.020;23.094;2022-11-11T16:25:48;98295.47;;;12.61;64.10
22755;BME280;11544;42.020;23.094;2022-11-11T16:28:47;98291.66;;;12.73;64.01
22755;BME280;11544;42.020;23.094;2022-11-11T16:31:36;98293.28;;;12.78;63.81
22755;BME280;11544;42.020;23.094;2022-11-11T16:37:11;98298.81;;;12.33;65.54
22755;BME280;11544;42.020;23.094;2022-11-11T16:46:23;98304.56;;;12.12;67.05
22755;BME280;11544;42.020;23.094;2022-11-11T16:49:32;98313.31;;;12.11;67.24
22755;BME280;11544;42.020;23.094;2022-11-11T16:52:22;98319.28;;;12.16;67.56
22755;BME280;11544;42.020;23.094;2022-11-11T16:55:10;98318.66;;;12.04;67.74
22755;BME280;11544;42.020;23.094;2022-11-11T16:58:14;98326.41;;;12.09;68.13
22755;BME280;11544;42.020;23.094;2022-11-11T17:01:01;98327.22;;;12.11;67.98
22755;BME280;11544;42.020;23.094;2022-11-11T17:03:56;98331.91;;;11.97;68.10
22755;BME280;11544;42.020;23.094;2022-11-11T17:09:35;98330.31;;;11.91;69.40